Data for 02/27/2015

Time Sea-Level Adjusted Pressure Absolute Pressure Temperature Relative Humidity Dew Point   
(mb) (inHg) (mb) (inHg) (C) (F) (%) (C) (F)
00:05 1017 30.03 846 24.98 -14.4 6 75 -18 -0.4
00:10 1017 30.03 846 24.98 -14.5 6 75 -18 -0.4
00:15 1017 30.03 846 24.98 -14.5 5.9 75 -18 -0.4
00:20 1017 30.03 846 24.98 -14.5 5.9 75 -18 -0.4
00:25 1016 30 846 24.98 -14.6 5.8 75 -18.1 -0.6
00:30 1016 30 846 24.98 -14.7 5.6 75 -18.2 -0.8
00:35 1016 30 845 24.95 -14.7 5.6 75 -18.2 -0.7
00:40 1016 30 846 24.98 -14.6 5.7 75 -18.1 -0.6
00:45 1016 30 846 24.98 -14.6 5.8 75 -18 -0.5
00:50 1016 30 845 24.95 -14.6 5.8 75 -18 -0.5
00:55 1016 30 845 24.95 -14.6 5.7 75 -18.1 -0.6
01:00 1016 30 845 24.95 -14.7 5.6 75 -18.2 -0.7
01:05 1016 30 845 24.95 -14.7 5.5 75 -18.2 -0.7
01:10 1016 30 845 24.95 -14.7 5.5 75 -18.2 -0.8
01:15 1016 30 845 24.95 -14.8 5.4 75 -18.2 -0.8
01:20 1016 30 845 24.95 -14.8 5.4 75 -18.2 -0.8
01:25 1016 30 845 24.95 -14.8 5.4 75 -18.2 -0.8
01:30 1016 30 845 24.95 -14.8 5.3 75 -18.3 -0.9
01:35 1016 30 845 24.95 -14.9 5.2 76 -18.3 -0.9
01:40 1016 30 845 24.95 -15 5.1 76 -18.3 -1
01:45 1016 30 845 24.95 -14.9 5.2 75 -18.4 -1
01:50 1016 30 845 24.95 -15 5 75 -18.4 -1.2
01:55 1016 30 845 24.95 -15 5 75 -18.4 -1.2
02:00 1016 30 845 24.95 -15.1 4.9 76 -18.5 -1.2
02:05 1016 30 845 24.95 -15.1 4.8 76 -18.5 -1.3
02:10 1016 30 845 24.95 -15.1 4.9 76 -18.5 -1.2
02:15 1016 30 845 24.95 -15.1 4.8 76 -18.5 -1.3
02:20 1015 29.97 845 24.95 -15.1 4.8 76 -18.5 -1.3
02:25 1015 29.97 845 24.95 -15.2 4.7 76 -18.5 -1.4
02:30 1015 29.97 845 24.95 -15.2 4.6 76 -18.6 -1.4
02:35 1015 29.97 844 24.92 -15.2 4.6 76 -18.6 -1.5
02:40 1015 29.97 844 24.92 -15.2 4.6 76 -18.6 -1.4
02:45 1015 29.97 844 24.92 -15.3 4.5 76 -18.6 -1.4
02:50 1015 29.97 844 24.92 -15.2 4.6 76 -18.6 -1.4
02:55 1015 29.97 844 24.92 -15.2 4.7 75 -18.6 -1.5
03:00 1015 29.97 844 24.92 -15.2 4.6 75 -18.7 -1.6
03:05 1015 29.97 844 24.92 -15.3 4.5 75 -18.8 -1.8
03:10 1015 29.97 844 24.92 -15.3 4.4 75 -18.8 -1.8
03:15 1015 29.97 844 24.92 -15.4 4.4 75 -18.9 -1.9
03:20 1015 29.97 844 24.92 -15.4 4.2 75 -18.9 -2
03:25 1015 29.97 844 24.92 -15.5 4.2 75 -18.9 -2.1
03:30 1015 29.97 844 24.92 -15.5 4.2 75 -19 -2.1
03:35 1015 29.97 844 24.92 -15.5 4.1 75 -19 -2.2
03:40 1015 29.97 844 24.92 -15.5 4.1 75 -18.9 -2
03:45 1015 29.97 844 24.92 -15.5 4.2 76 -18.9 -1.9
03:50 1015 29.97 844 24.92 -15.4 4.2 75 -18.9 -1.9
03:55 1015 29.97 844 24.92 -15.4 4.3 75 -18.8 -1.9
04:00 1015 29.97 844 24.92 -15.3 4.4 75 -18.8 -1.8
04:05 1015 29.97 844 24.92 -15.4 4.4 76 -18.8 -1.8
04:10 1015 29.97 844 24.92 -15.3 4.4 75 -18.8 -1.8
04:15 1014 29.94 844 24.92 -15.3 4.5 76 -18.7 -1.6
04:20 1014 29.94 844 24.92 -15.3 4.5 75 -18.7 -1.7
04:25 1014 29.94 843 24.89 -15.2 4.6 75 -18.7 -1.6
04:30 1014 29.94 843 24.89 -15.2 4.7 75 -18.7 -1.7
04:35 1014 29.94 843 24.89 -15.2 4.7 75 -18.7 -1.7
04:40 1014 29.94 843 24.89 -15.1 4.7 75 -18.7 -1.6
04:45 1014 29.94 843 24.89 -15.1 4.7 75 -18.7 -1.7
04:50 1014 29.94 843 24.89 -15.1 4.7 74 -18.8 -1.8
04:55 1014 29.94 843 24.89 -15.2 4.7 74 -18.8 -1.9
05:00 1014 29.94 843 24.89 -15.2 4.7 74 -18.8 -1.8
05:05 1014 29.94 843 24.89 -15.1 4.8 74 -18.7 -1.7
05:10 1014 29.94 843 24.89 -15.1 4.8 75 -18.7 -1.6
05:15 1014 29.94 843 24.89 -15.1 4.9 75 -18.6 -1.5
05:20 1014 29.94 843 24.89 -15 5.1 75 -18.5 -1.3
05:25 1014 29.94 843 24.89 -14.9 5.1 75 -18.5 -1.3
05:30 1014 29.94 843 24.89 -14.9 5.2 75 -18.5 -1.2
05:35 1014 29.94 843 24.89 -14.9 5.3 75 -18.4 -1.1
05:40 1014 29.94 843 24.89 -14.8 5.4 75 -18.4 -1
05:45 1014 29.94 843 24.89 -14.7 5.6 74 -18.3 -0.9
05:50 1014 29.94 843 24.89 -14.7 5.5 74 -18.3 -1
05:55 1014 29.94 843 24.89 -14.7 5.5 74 -18.3 -1
06:00 1014 29.94 843 24.89 -14.7 5.5 74 -18.3 -1
06:05 1014 29.94 843 24.89 -14.8 5.5 75 -18.3 -0.9
06:10 1014 29.94 843 24.89 -14.7 5.5 74 -18.4 -1.1
06:15 1014 29.94 843 24.89 -14.8 5.4 75 -18.4 -1.1
06:20 1014 29.94 843 24.89 -14.9 5.2 75 -18.4 -1.1
06:25 1014 29.94 843 24.89 -14.9 5.2 75 -18.4 -1.1
06:30 1014 29.94 843 24.89 -14.9 5.2 75 -18.4 -1.1
06:35 1014 29.94 843 24.89 -15 5.1 76 -18.4 -1.1
06:40 1014 29.94 843 24.89 -15.1 4.9 75 -18.5 -1.3
06:45 1014 29.94 843 24.89 -15.1 4.8 76 -18.5 -1.3
06:50 1014 29.94 843 24.89 -15.2 4.7 76 -18.5 -1.3
06:55 1014 29.94 843 24.89 -15.3 4.5 76 -18.6 -1.5
07:00 1014 29.94 843 24.89 -15.3 4.5 76 -18.7 -1.6
07:05 1014 29.94 843 24.89 -15.2 4.6 75 -18.6 -1.6
07:10 1014 29.94 843 24.89 -15.2 4.6 76 -18.6 -1.5
07:15 1014 29.94 843 24.89 -15.2 4.7 75 -18.6 -1.5
07:20 1013 29.91 843 24.89 -15.2 4.7 75 -18.6 -1.5
07:25 1013 29.91 843 24.89 -15.2 4.6 76 -18.6 -1.5
07:30 1013 29.91 843 24.89 -15.2 4.6 76 -18.6 -1.4
07:35 1013 29.91 843 24.89 -15.1 4.8 76 -18.5 -1.3
07:40 1013 29.91 842 24.86 -15 5.1 75 -18.4 -1.1
07:45 1013 29.91 842 24.86 -14.8 5.4 75 -18.3 -0.9
07:50 1013 29.91 842 24.86 -14.7 5.5 74 -18.3 -1
07:55 1013 29.91 842 24.86 -14.8 5.4 74 -18.4 -1.1
08:00 1013 29.91 842 24.86 -14.7 5.6 74 -18.4 -1
08:05 1013 29.91 842 24.86 -14.6 5.6 74 -18.3 -0.9
08:10 1013 29.91 842 24.86 -14.6 5.7 74 -18.3 -1
08:15 1013 29.91 842 24.86 -14.7 5.6 74 -18.3 -1
08:20 1013 29.91 842 24.86 -14.7 5.5 74 -18.3 -1
08:25 1013 29.91 842 24.86 -14.6 5.8 73 -18.3 -1
08:30 1013 29.91 842 24.86 -14.5 6 73 -18.2 -0.8
08:35 1013 29.91 842 24.86 -14.3 6.3 72 -18.2 -0.8
08:40 1013 29.91 842 24.86 -13.9 6.9 71 -18.2 -0.7
08:45 1013 29.91 843 24.89 -13.8 7.3 71 -18 -0.4
08:50 1013 29.91 843 24.89 -13.6 7.6 70 -17.9 -0.3
08:55 1013 29.91 843 24.89 -13.4 7.8 69 -17.9 -0.2
09:00 1013 29.91 843 24.89 -13.4 7.8 70 -17.8 -0.1
09:05 1013 29.91 843 24.89 -13.1 8.4 69 -17.7 0.1
09:10 1014 29.94 843 24.89 -12.6 9.3 67 -17.6 0.3
09:15 1014 29.94 843 24.89 -12.6 9.3 67 -17.6 0.4
09:20 1014 29.94 843 24.89 -12.7 9.2 67 -17.5 0.4
09:25 1014 29.94 843 24.89 -11.9 10.5 63 -17.6 0.3
09:30 1014 29.94 843 24.89 -11.7 10.9 64 -17.3 0.9
09:35 1014 29.94 843 24.89 -11.2 11.8 62 -17.2 1.1
09:40 1014 29.94 843 24.89 -10.6 12.9 60 -16.9 1.6
09:45 1014 29.94 843 24.89 -10.8 12.6 62 -16.7 1.9
09:50 1014 29.94 843 24.89 -11.3 11.6 65 -16.7 1.9
09:55 1014 29.94 843 24.89 -11.4 11.4 66 -16.6 2.2
10:00 1014 29.94 843 24.89 -11.3 11.7 65 -16.5 2.2
10:05 1014 29.94 843 24.89 -10.9 12.4 62 -16.8 1.7
10:10 1014 29.94 843 24.89 -10.6 13 63 -16.2 2.8
10:15 1014 29.94 843 24.89 -10.4 13.3 60 -16.7 2
10:20 1014 29.94 843 24.89 -10.4 13.3 60 -16.7 1.9
10:25 1014 29.94 843 24.89 -9.7 14.5 58 -16.5 2.3
10:30 1014 29.94 843 24.89 -9.4 15.2 57 -16.5 2.4
10:35 1014 29.94 843 24.89 -9 15.8 57 -16 3.2
10:40 1014 29.94 843 24.89 -8.7 16.4 58 -15.4 4.2
10:45 1014 29.94 843 24.89 -8.2 17.3 58 -15 5.1
10:50 1014 29.94 843 24.89 -7.9 17.9 53 -15.8 3.6
10:55 1014 29.94 843 24.89 -7.6 18.3 53 -15.7 3.7
11:00 1014 29.94 843 24.89 -7.9 17.7 54 -15.6 3.9
11:05 1014 29.94 843 24.89 -8.1 17.4 55 -15.7 3.7
11:10 1014 29.94 843 24.89 -8.1 17.4 56 -15.4 4.3
11:15 1013 29.91 843 24.89 -8.8 16.2 56 -15.9 3.3
11:20 1013 29.91 843 24.89 -8 17.5 54 -15.7 3.7
11:25 1013 29.91 843 24.89 -7.9 17.8 54 -15.6 3.9
11:30 1013 29.91 843 24.89 -7.8 17.9 55 -15.5 4.2
11:35 1013 29.91 843 24.89 -7.3 18.8 53 -15.3 4.5
11:40 1013 29.91 843 24.89 -7.2 19.1 53 -15.3 4.5
11:45 1013 29.91 843 24.89 -6.9 19.6 52 -15.2 4.7
11:50 1013 29.91 843 24.89 -6.3 20.6 51 -15 5.1
11:55 1013 29.91 843 24.89 -6.1 21.1 50 -15 5
12:00 1013 29.91 843 24.89 -5.8 21.6 50 -14.6 5.7
12:05 1013 29.91 843 24.89 -6 21.3 49 -15 5
12:10 1013 29.91 843 24.89 -5.1 22.8 46 -15.1 4.8
12:15 1013 29.91 843 24.89 -4.7 23.5 47 -14.3 6.3
12:20 1013 29.91 843 24.89 -4.4 24.1 45 -14.5 5.9
12:25 1013 29.91 843 24.89 -4.2 24.4 45 -14.4 6.1
12:30 1013 29.91 843 24.89 -4.6 23.6 48 -14.2 6.5
12:35 1013 29.91 843 24.89 -4.5 23.9 47 -14.3 6.3
12:40 1013 29.91 843 24.89 -4 24.9 45 -14.2 6.5
12:45 1013 29.91 843 24.89 -4 24.7 45 -14.2 6.5
12:50 1013 29.91 843 24.89 -3.6 25.6 46 -13.7 7.3
12:55 1013 29.91 842 24.86 -3.3 26.1 47 -13.1 8.4
13:00 1013 29.91 842 24.86 -3.6 25.6 45 -13.7 7.3
13:05 1013 29.91 842 24.86 -3.4 25.8 49 -12.8 9
13:10 1013 29.91 842 24.86 -3.5 25.6 47 -13.2 8.2
13:15 1013 29.91 842 24.86 -3.2 26.2 46 -13.3 8.1
13:20 1013 29.91 842 24.86 -2.6 27.3 44 -13.2 8.2
13:25 1013 29.91 842 24.86 -2.9 26.8 47 -12.6 9.4
13:30 1013 29.91 842 24.86 -3.2 26.3 47 -13.1 8.5
13:35 1013 29.91 842 24.86 -3.2 26.3 45 -13.4 7.9
13:40 1013 29.91 842 24.86 -3 26.5 47 -12.8 8.9
13:45 1013 29.91 842 24.86 -2.3 27.9 44 -12.9 8.9
13:50 1013 29.91 842 24.86 -3.1 26.4 53 -11.4 11.4
13:55 1013 29.91 842 24.86 -3.3 26 48 -12.8 8.9
14:00 1013 29.91 842 24.86 -3 26.5 49 -12.3 9.9
14:05 1013 29.91 842 24.86 -2.8 27 48 -12.2 10
14:10 1013 29.91 842 24.86 -3.7 25.3 51 -12.5 9.5
14:15 1013 29.91 842 24.86 -3.1 26.4 51 -11.9 10.5
14:20 1013 29.91 842 24.86 -4.2 24.4 54 -12.3 9.9
14:25 1013 29.91 842 24.86 -3.1 26.3 48 -12.6 9.4
14:30 1013 29.91 842 24.86 -2 28.3 47 -12 10.4
14:35 1013 29.91 842 24.86 -2.1 28.2 49 -11.5 11.3
14:40 1013 29.91 842 24.86 -2.1 28.3 47 -11.9 10.6
14:45 1013 29.91 842 24.86 -2 28.4 49 -11.4 11.4
14:50 1013 29.91 842 24.86 -1.5 29.3 44 -12.3 9.9
14:55 1013 29.91 842 24.86 -1.5 29.3 45 -12.1 10.3
15:00 1013 29.91 842 24.86 -1.9 28.6 47 -11.8 10.7
15:05 1013 29.91 842 24.86 -1.7 29 48 -11.3 11.7
15:10 1013 29.91 842 24.86 -1.1 30.1 45 -11.7 11
15:15 1013 29.91 842 24.86 -1.1 30 46 -11.4 11.4
15:20 1013 29.91 842 24.86 -1.4 29.4 45 -11.9 10.6
15:25 1013 29.91 842 24.86 -1.4 29.4 45 -11.9 10.6
15:30 1013 29.91 842 24.86 -1.3 29.6 44 -12.1 10.1
15:35 1013 29.91 842 24.86 -1.3 29.7 44 -12.2 10.1
15:40 1013 29.91 842 24.86 -1.3 29.7 46 -11.6 11.2
15:45 1013 29.91 842 24.86 -1.1 30 45 -11.6 11.1
15:50 1013 29.91 842 24.86 -1.3 29.6 45 -11.8 10.8
15:55 1013 29.91 842 24.86 -1.8 28.8 47 -11.8 10.8
16:00 1013 29.91 842 24.86 -2 28.4 47 -11.9 10.5
16:05 1013 29.91 842 24.86 -1.9 28.5 46 -12 10.3
16:10 1013 29.91 842 24.86 -1.6 29.1 46 -11.7 11
16:15 1013 29.91 842 24.86 -1.7 29 46 -11.8 10.8
16:20 1013 29.91 842 24.86 -1.9 28.6 46 -11.9 10.6
16:25 1013 29.91 842 24.86 -2.3 27.9 48 -11.9 10.5
16:30 1013 29.91 842 24.86 -2.4 27.7 47 -12.3 9.9
16:35 1013 29.91 842 24.86 -2.5 27.6 48 -11.9 10.5
16:40 1013 29.91 842 24.86 -2.6 27.4 48 -12.1 10.2
16:45 1013 29.91 842 24.86 -2.2 28 46 -12.3 9.8
16:50 1013 29.91 842 24.86 -2.4 27.7 46 -12.5 9.6
16:55 1013 29.91 842 24.86 -2.5 27.4 48 -12 10.4
17:00 1013 29.91 842 24.86 -2.9 26.8 49 -12.3 9.9
17:05 1013 29.91 842 24.86 -2.9 26.9 49 -12.1 10.2
17:10 1013 29.91 842 24.86 -2.6 27.4 49 -11.9 10.6
17:15 1013 29.91 842 24.86 -2.9 26.8 51 -11.8 10.8
17:20 1013 29.91 842 24.86 -3 26.5 50 -12.2 10.1
17:25 1013 29.91 842 24.86 -3.1 26.3 50 -12.1 10.2
17:30 1013 29.91 842 24.86 -2.8 26.9 49 -12 10.4
17:35 1013 29.91 842 24.86 -2.9 26.7 49 -12.2 10.1
17:40 1013 29.91 842 24.86 -3.1 26.5 50 -12.1 10.2
17:45 1013 29.91 842 24.86 -3 26.6 49 -12.4 9.8
17:50 1013 29.91 842 24.86 -2.7 27.1 48 -12.3 9.9
17:55 1013 29.91 842 24.86 -2.5 27.6 47 -12.2 10
18:00 1013 29.91 842 24.86 -2.4 27.7 48 -12 10.4
18:05 1013 29.91 842 24.86 -2.6 27.3 49 -12 10.5
18:10 1013 29.91 842 24.86 -2.8 26.9 50 -11.8 10.7
18:15 1013 29.91 842 24.86 -3 26.6 50 -11.9 10.5
18:20 1013 29.91 842 24.86 -3.1 26.5 51 -11.9 10.7
18:25 1013 29.91 842 24.86 -3.3 26.1 52 -11.7 11
18:30 1013 29.91 842 24.86 -3.4 25.8 52 -11.9 10.6
18:35 1013 29.91 842 24.86 -4 24.8 55 -11.8 10.8
18:40 1013 29.91 842 24.86 -4.3 24.3 55 -12 10.4
18:45 1013 29.91 842 24.86 -4.2 24.4 56 -11.7 11
18:50 1013 29.91 842 24.86 -4 24.9 54 -12 10.4
18:55 1013 29.91 842 24.86 -3.8 25.2 54 -11.8 10.8
19:00 1013 29.91 842 24.86 -4.2 24.5 57 -11.5 11.3
19:05 1013 29.91 842 24.86 -4.5 24 63 -10.5 13.1
19:10 1013 29.91 842 24.86 -4.8 23.4 69 -9.6 14.6
19:15 1013 29.91 842 24.86 -5 22.9 70 -9.7 14.6
19:20 1013 29.91 842 24.86 -5.1 22.7 69 -9.9 14.2
19:25 1013 29.91 843 24.89 -5.1 22.8 69 -9.9 14.2
19:30 1013 29.91 843 24.89 -5 23 65 -10.7 12.8
19:35 1013 29.91 843 24.89 -5.1 22.9 62 -11.2 11.9
19:40 1013 29.91 843 24.89 -5.3 22.5 61 -11.6 11.1
19:45 1013 29.91 843 24.89 -5.5 22.1 62 -11.6 11.1
19:50 1013 29.91 843 24.89 -5.7 21.8 63 -11.7 11
19:55 1013 29.91 843 24.89 -5.7 21.8 63 -11.7 11
20:00 1014 29.94 843 24.89 -5.8 21.5 64 -11.7 11
20:05 1014 29.94 843 24.89 -5.9 21.4 64 -11.7 10.9
20:10 1014 29.94 843 24.89 -5.9 21.3 64 -11.7 11
20:15 1014 29.94 843 24.89 -6 21.2 65 -11.5 11.2
20:20 1014 29.94 843 24.89 -6.1 21.1 65 -11.6 11.2
20:25 1014 29.94 843 24.89 -6.1 21 65 -11.6 11.1
20:30 1014 29.94 843 24.89 -6.1 21 65 -11.7 11
20:35 1014 29.94 843 24.89 -6.2 20.8 65 -11.8 10.8
20:40 1014 29.94 843 24.89 -6.3 20.7 64 -11.9 10.6
20:45 1014 29.94 843 24.89 -6.3 20.6 63 -12.2 10.1
20:50 1014 29.94 843 24.89 -6.4 20.4 64 -12.3 9.9
20:55 1014 29.94 843 24.89 -6.5 20.3 63 -12.4 9.6
21:00 1014 29.94 843 24.89 -6.6 20.1 64 -12.3 9.8
21:05 1014 29.94 843 24.89 -6.7 19.9 63 -12.6 9.4
21:10 1014 29.94 843 24.89 -6.9 19.7 64 -12.6 9.4
21:15 1014 29.94 843 24.89 -7 19.4 64 -12.7 9.2
21:20 1014 29.94 843 24.89 -7.1 19.3 64 -12.8 9
21:25 1014 29.94 843 24.89 -7.2 19.1 64 -12.8 9
21:30 1014 29.94 843 24.89 -7.3 18.8 65 -12.8 9
21:35 1014 29.94 843 24.89 -7.4 18.7 65 -12.9 8.8
21:40 1014 29.94 843 24.89 -7.5 18.4 65 -13.1 8.4
21:45 1014 29.94 843 24.89 -7.6 18.4 65 -13.2 8.3
21:50 1014 29.94 843 24.89 -7.6 18.3 65 -13.2 8.2
21:55 1014 29.94 843 24.89 -7.7 18.1 65 -13.3 8.1
22:00 1014 29.94 844 24.92 -7.8 17.9 66 -13.2 8.2
22:05 1014 29.94 844 24.92 -8 17.7 66 -13.3 8.1
22:10 1014 29.94 844 24.92 -8.1 17.5 67 -13.2 8.3
22:15 1015 29.97 844 24.92 -8.2 17.2 67 -13.3 8.1
22:20 1015 29.97 844 24.92 -8.3 17 67 -13.4 8
22:25 1015 29.97 844 24.92 -8.4 16.8 68 -13.4 7.9
22:30 1015 29.97 844 24.92 -8.5 16.6 68 -13.4 7.9
22:35 1015 29.97 844 24.92 -8.6 16.5 68 -13.4 7.9
22:40 1015 29.97 844 24.92 -8.7 16.4 69 -13.4 7.9
22:45 1015 29.97 844 24.92 -8.7 16.4 69 -13.4 7.8
22:50 1015 29.97 844 24.92 -8.8 16.2 70 -13.4 7.9
22:55 1015 29.97 844 24.92 -8.8 16.1 70 -13.3 8
23:00 1015 29.97 844 24.92 -8.9 16.1 70 -13.3 8
23:05 1015 29.97 844 24.92 -8.9 16 71 -13.3 8.1
23:10 1015 29.97 844 24.92 -8.9 15.9 71 -13.3 8.1
23:15 1015 29.97 844 24.92 -9 15.8 72 -13.2 8.2
23:20 1015 29.97 844 24.92 -9.1 15.7 72 -13.2 8.2
23:25 1015 29.97 844 24.92 -9.1 15.6 73 -13.2 8.2
23:30 1015 29.97 844 24.92 -9.2 15.4 73 -13.2 8.3
23:35 1015 29.97 844 24.92 -9.3 15.3 73 -13.2 8.3
23:40 1015 29.97 844 24.92 -9.3 15.3 73 -13.3 8.1
23:45 1015 29.97 844 24.92 -9.3 15.2 74 -13.1 8.3
23:50 1015 29.97 844 24.92 -9.4 15 74 -13.2 8.2
23:55 1015 29.97 844 24.92 -9.5 14.9 74 -13.3 8.1
24:00 1015 29.97 844 24.92 -9.6 14.8 74 -13.3 8